Time;durP1;ratioP1;P1;durP2;ratioP2;P2;SDS_P1;SDS_P2;PMS_P1;PMS_P2;Temp;Humidity;BMP_temperature;BMP_pressure;BME280_temperature;BME280_humidity;BME280_pressure;Samples;Min_cycle;Max_cycle;Signal;HPM_P1;HPM_P2
2021/07/28 00:01:19;;;;;;;11.37;6.77;;;19.90;84.90;;;;;;5072924;28;20448;-77
2021/07/28 00:03:46;;;;;;;8.30;6.90;;;20.00;84.70;;;;;;5075277;28;20557;-76
2021/07/28 00:06:18;;;;;;;10.40;7.03;;;20.00;84.70;;;;;;5077352;28;20448;-77
2021/07/28 00:08:45;;;;;;;7.80;6.87;;;20.00;84.90;;;;;;5077406;28;20433;-77
2021/07/28 00:11:12;;;;;;;12.17;7.90;;;20.00;85.10;;;;;;5077241;28;20448;-77
2021/07/28 00:13:39;;;;;;;11.30;7.50;;;19.90;85.30;;;;;;5077197;28;20464;-76
2021/07/28 00:16:11;;;;;;;10.00;7.53;;;19.80;85.50;;;;;;5077163;28;20444;-77
2021/07/28 00:18:43;;;;;;;10.80;7.10;;;19.80;86.00;;;;;;5077169;28;20429;-77
2021/07/28 00:23:54;;;;;;;14.03;7.20;;;19.50;86.80;;;;;;5077144;28;20948;-77
2021/07/28 00:26:21;;;;;;;11.47;6.63;;;19.50;87.50;;;;;;5077864;28;20449;-77
2021/07/28 00:28:48;;;;;;;13.73;8.27;;;19.40;87.80;;;;;;5076929;28;20819;-77
2021/07/28 00:31:16;;;;;;;14.20;7.80;;;19.40;87.80;;;;;;5076987;28;20444;-77
2021/07/28 00:33:43;;;;;;;12.73;9.10;;;19.40;87.90;;;;;;5076795;28;20468;-77
2021/07/28 00:36:10;;;;;;;8.13;6.80;;;19.40;87.80;;;;;;5076719;28;20450;-77
2021/07/28 00:38:36;;;;;;;14.83;6.40;;;19.50;88.00;;;;;;5076440;28;20931;-77
2021/07/28 00:41:03;;;;;;;13.03;7.23;;;19.50;87.80;;;;;;5076687;28;20440;-77
2021/07/28 00:43:30;;;;;;;20.50;8.30;;;19.50;87.60;;;;;;5076505;28;20480;-77
2021/07/28 00:45:57;;;;;;;7.53;6.83;;;19.40;87.50;;;;;;5076537;28;20448;-77
2021/07/28 00:48:25;;;;;;;9.00;6.90;;;19.40;87.60;;;;;;5076528;28;20444;-77
2021/07/28 00:50:52;;;;;;;11.30;6.47;;;19.40;87.30;;;;;;5076485;28;20444;-77
2021/07/28 00:53:19;;;;;;;10.00;7.37;;;19.40;87.40;;;;;;5076372;28;20475;-77
2021/07/28 00:55:47;;;;;;;12.67;7.60;;;19.40;87.50;;;;;;5076662;28;20453;-78
2021/07/28 00:58:14;;;;;;;12.70;7.00;;;19.40;87.90;;;;;;5076939;28;20450;-77
2021/07/28 01:00:41;;;;;;;9.27;7.60;;;19.40;87.60;;;;;;5076341;28;20448;-77
2021/07/28 01:03:08;;;;;;;7.67;6.80;;;19.30;87.50;;;;;;5076151;28;20542;-77
2021/07/28 01:05:36;;;;;;;10.70;7.67;;;19.30;87.70;;;;;;5076182;28;20449;-77
2021/07/28 01:08:05;;;;;;;11.23;7.60;;;19.40;88.10;;;;;;5076196;28;20467;-77
2021/07/28 01:10:32;;;;;;;14.80;7.90;;;19.30;87.90;;;;;;5076187;28;20847;-77
2021/07/28 01:12:59;;;;;;;11.37;8.00;;;19.30;87.80;;;;;;5076046;28;20904;-77
2021/07/28 01:15:40;;;;;;;10.30;7.17;;;19.30;87.80;;;;;;5075022;28;20818;-77
2021/07/28 01:18:08;;;;;;;8.63;6.50;;;19.30;88.00;;;;;;5075834;28;20895;-77
2021/07/28 01:20:38;;;;;;;10.20;6.90;;;19.30;88.00;;;;;;5075936;28;20448;-77
2021/07/28 01:23:12;;;;;;;15.80;7.90;;;19.20;88.00;;;;;;5075486;28;20498;-77
2021/07/28 01:25:41;;;;;;;9.90;8.17;;;19.30;88.00;;;;;;5075936;28;20432;-77
2021/07/28 01:28:08;;;;;;;10.00;7.77;;;19.30;87.80;;;;;;5075863;28;20863;-77
2021/07/28 01:30:35;;;;;;;10.83;7.23;;;19.20;87.70;;;;;;5075788;28;20480;-77
2021/07/28 01:33:03;;;;;;;15.47;8.77;;;19.20;87.80;;;;;;5075674;28;20534;-77
2021/07/28 01:35:32;;;;;;;8.80;7.43;;;19.10;87.90;;;;;;5075712;28;20476;-77
2021/07/28 01:37:59;;;;;;;9.97;6.93;;;19.20;88.00;;;;;;5075632;28;20440;-77
2021/07/28 01:40:26;;;;;;;9.83;8.50;;;19.20;87.70;;;;;;5075564;28;20473;-77
2021/07/28 01:42:54;;;;;;;17.70;8.00;;;19.10;87.50;;;;;;5075452;28;20492;-77
2021/07/28 01:45:21;;;;;;;21.30;9.00;;;19.00;87.60;;;;;;5075194;28;20445;-77
2021/07/28 01:47:48;;;;;;;16.17;8.50;;;19.10;88.20;;;;;;5075425;28;20441;-77
2021/07/28 01:50:14;;;;;;;10.93;8.27;;;19.00;87.70;;;;;;5075751;28;20441;-78
2021/07/28 01:52:42;;;;;;;12.60;8.53;;;19.00;88.20;;;;;;5076669;28;20836;-77
2021/07/28 01:55:10;;;;;;;10.50;8.07;;;19.00;88.10;;;;;;5075547;28;20472;-76
2021/07/28 01:57:36;;;;;;;14.90;7.90;;;19.00;88.30;;;;;;5075916;28;20445;-78
2021/07/28 02:00:06;;;;;;;10.33;8.77;;;19.00;88.50;;;;;;5076238;28;20449;-77
2021/07/28 02:02:34;;;;;;;12.10;8.03;;;19.00;88.50;;;;;;5076159;28;20476;-77
2021/07/28 02:05:01;;;;;;;11.80;8.50;;;19.00;88.40;;;;;;5075719;28;20451;-76
2021/07/28 02:07:28;;;;;;;12.50;7.80;;;19.00;88.40;;;;;;5075203;28;20468;-76
2021/07/28 02:09:55;;;;;;;10.83;8.20;;;19.00;87.90;;;;;;5075206;28;20445;-76
2021/07/28 02:12:22;;;;;;;9.43;8.40;;;19.00;88.10;;;;;;5074877;28;20465;-76
2021/07/28 02:14:48;;;;;;;14.60;8.00;;;19.00;88.10;;;;;;5074607;28;20957;-76
2021/07/28 02:17:17;;;;;;;15.73;8.73;;;19.00;88.20;;;;;;5075026;28;20458;-76
2021/07/28 02:19:43;;;;;;;9.70;8.40;;;19.00;88.00;;;;;;5075586;28;20480;-77
2021/07/28 02:22:11;;;;;;;8.30;7.50;;;19.00;88.20;;;;;;5074536;28;20492;-76
2021/07/28 02:24:38;;;;;;;15.97;8.93;;;19.00;88.20;;;;;;5075284;28;20543;-77
2021/07/28 02:27:05;;;;;;;9.83;8.83;;;19.00;88.40;;;;;;5075482;28;20475;-77
2021/07/28 02:29:34;;;;;;;10.23;8.40;;;18.90;88.30;;;;;;5075396;28;20451;-77
2021/07/28 02:32:02;;;;;;;13.93;8.60;;;18.90;88.50;;;;;;5074729;28;20887;-77
2021/07/28 02:34:31;;;;;;;15.37;8.97;;;18.90;88.60;;;;;;5075318;28;20779;-77
2021/07/28 02:36:58;;;;;;;11.47;8.23;;;18.90;88.90;;;;;;5074474;28;20497;-76
2021/07/28 02:39:25;;;;;;;9.47;8.53;;;18.90;88.90;;;;;;5074390;28;20448;-76
2021/07/28 02:41:52;;;;;;;8.60;7.70;;;18.80;88.70;;;;;;5074032;28;20997;-76
2021/07/28 02:44:19;;;;;;;10.70;8.30;;;18.80;89.00;;;;;;5074296;28;20467;-76
2021/07/28 02:46:46;;;;;;;13.73;9.40;;;18.80;89.20;;;;;;5074404;28;20535;-76
2021/07/28 02:49:12;;;;;;;8.83;7.93;;;18.80;89.50;;;;;;5074320;28;20440;-76
2021/07/28 02:51:40;;;;;;;12.13;8.67;;;18.80;89.40;;;;;;5074204;28;20801;-76
2021/07/28 02:54:08;;;;;;;12.93;8.63;;;18.80;89.70;;;;;;5073869;28;21051;-76
2021/07/28 02:56:35;;;;;;;9.97;8.57;;;18.80;89.90;;;;;;5074621;28;20441;-77
2021/07/28 02:59:02;;;;;;;9.60;8.17;;;18.80;89.60;;;;;;5074980;28;20448;-76
2021/07/28 03:01:29;;;;;;;9.50;8.50;;;18.80;89.90;;;;;;5073982;28;20444;-76
2021/07/28 03:03:55;;;;;;;11.80;8.10;;;18.80;89.90;;;;;;5073574;28;20487;-76
2021/07/28 03:06:22;;;;;;;12.53;8.63;;;18.80;89.80;;;;;;5073915;28;20449;-76
2021/07/28 03:08:50;;;;;;;11.53;8.20;;;18.80;89.80;;;;;;5073658;28;20445;-76
2021/07/28 03:11:17;;;;;;;11.70;8.20;;;18.80;89.90;;;;;;5074064;28;20449;-76
2021/07/28 03:13:43;;;;;;;13.87;8.13;;;18.80;89.90;;;;;;5073758;28;20467;-76
2021/07/28 03:16:10;;;;;;;12.97;8.80;;;18.80;90.00;;;;;;5073876;28;20440;-76
2021/07/28 03:18:37;;;;;;;11.00;8.83;;;18.80;90.00;;;;;;5073844;28;20448;-76
2021/07/28 03:21:04;;;;;;;11.50;8.70;;;18.90;90.10;;;;;;5073817;28;20441;-76
2021/07/28 03:23:30;;;;;;;11.37;9.33;;;18.80;90.10;;;;;;5073316;28;20495;-76
2021/07/28 03:25:58;;;;;;;13.23;8.70;;;18.80;90.20;;;;;;5073834;28;20440;-76
2021/07/28 03:28:25;;;;;;;14.23;9.00;;;18.80;90.20;;;;;;5074137;28;20818;-77
2021/07/28 03:30:52;;;;;;;14.63;9.40;;;18.80;90.20;;;;;;5074215;28;20449;-77
2021/07/28 03:33:19;;;;;;;12.23;9.20;;;18.80;90.30;;;;;;5074094;28;20870;-76
2021/07/28 03:35:46;;;;;;;10.23;9.10;;;18.90;90.30;;;;;;5073887;28;20445;-76
2021/07/28 03:38:14;;;;;;;9.80;8.07;;;19.00;90.30;;;;;;5073446;28;20437;-77
2021/07/28 03:40:41;;;;;;;12.10;8.33;;;19.00;90.30;;;;;;5073500;28;20498;-76
2021/07/28 03:43:09;;;;;;;13.20;9.70;;;19.10;90.30;;;;;;5073691;28;20487;-76
2021/07/28 03:45:36;;;;;;;14.63;9.40;;;19.00;90.10;;;;;;5073766;28;20445;-77
2021/07/28 03:48:03;;;;;;;11.10;9.63;;;19.10;90.20;;;;;;5073739;28;20448;-77
2021/07/28 03:50:30;;;;;;;14.23;8.37;;;19.00;90.20;;;;;;5073503;28;20448;-77
2021/07/28 03:52:57;;;;;;;13.03;9.17;;;19.00;90.10;;;;;;5073390;28;20465;-77
2021/07/28 03:55:24;;;;;;;12.10;8.90;;;19.00;90.20;;;;;;5073440;28;20459;-77
2021/07/28 03:57:51;;;;;;;12.07;9.87;;;18.90;90.30;;;;;;5073463;28;20467;-77
2021/07/28 04:00:20;;;;;;;11.43;8.90;;;18.90;90.30;;;;;;5073508;28;20471;-77
2021/07/28 04:02:47;;;;;;;13.87;9.83;;;18.80;90.40;;;;;;5073357;28;20966;-77
2021/07/28 04:05:15;;;;;;;11.00;9.90;;;18.90;90.50;;;;;;5072962;28;20451;-77
2021/07/28 04:07:41;;;;;;;16.70;9.17;;;18.80;90.50;;;;;;5073378;28;20476;-77
2021/07/28 04:10:09;;;;;;;12.60;9.60;;;18.80;90.50;;;;;;5073178;28;20448;-77
2021/07/28 04:12:37;;;;;;;12.70;9.73;;;18.80;90.70;;;;;;5073176;28;20831;-77
2021/07/28 04:15:04;;;;;;;15.90;9.20;;;18.90;90.70;;;;;;5073280;28;20456;-77
2021/07/28 04:17:32;;;;;;;13.93;9.13;;;18.90;90.60;;;;;;5072920;28;20448;-77
2021/07/28 04:19:59;;;;;;;14.13;9.90;;;19.00;90.60;;;;;;5073356;28;20490;-77
2021/07/28 04:22:27;;;;;;;12.23;9.63;;;19.00;90.90;;;;;;5073020;28;20476;-77
2021/07/28 04:24:54;;;;;;;11.80;8.73;;;19.00;90.60;;;;;;5073644;28;20490;-77
2021/07/28 04:27:20;;;;;;;21.70;9.83;;;19.00;90.60;;;;;;5074047;28;20449;-77
2021/07/28 04:29:47;;;;;;;9.93;9.00;;;19.00;90.60;;;;;;5074323;28;20452;-77
2021/07/28 04:32:14;;;;;;;12.40;9.77;;;19.00;90.50;;;;;;5074319;28;20469;-77
2021/07/28 04:34:42;;;;;;;9.67;8.27;;;19.00;90.60;;;;;;5074145;28;20447;-77
2021/07/28 04:37:09;;;;;;;11.50;9.20;;;19.00;90.60;;;;;;5074075;28;20455;-77
2021/07/28 04:39:36;;;;;;;11.57;9.00;;;19.00;90.70;;;;;;5073156;28;20440;-77
2021/07/28 04:42:02;;;;;;;10.90;8.67;;;19.00;90.60;;;;;;5073200;28;20456;-77
2021/07/28 04:44:29;;;;;;;14.43;9.77;;;19.00;90.60;;;;;;5072681;28;21020;-77
2021/07/28 04:46:56;;;;;;;9.90;8.90;;;19.00;90.80;;;;;;5073151;28;20464;-77
2021/07/28 04:49:23;;;;;;;16.67;8.80;;;19.00;90.90;;;;;;5073246;28;20491;-77
2021/07/28 04:51:52;;;;;;;10.90;9.50;;;19.00;90.80;;;;;;5076477;28;20543;-77
2021/07/28 04:54:18;;;;;;;10.20;9.20;;;19.00;90.60;;;;;;5077065;28;20440;-77
2021/07/28 04:56:45;;;;;;;9.60;8.70;;;19.00;90.70;;;;;;5076117;28;20811;-77
2021/07/28 04:59:12;;;;;;;9.43;8.53;;;19.00;90.70;;;;;;5076480;28;20448;-77
2021/07/28 05:01:39;;;;;;;9.40;8.30;;;19.10;90.60;;;;;;5076280;28;20441;-77
2021/07/28 05:04:05;;;;;;;11.50;8.60;;;19.10;90.40;;;;;;5076291;28;20480;-77
2021/07/28 05:06:32;;;;;;;10.47;9.43;;;19.20;90.50;;;;;;5076271;28;20452;-77
2021/07/28 05:09:00;;;;;;;9.23;8.23;;;19.20;90.50;;;;;;5075974;28;20969;-77
2021/07/28 05:11:27;;;;;;;15.17;7.90;;;19.30;90.40;;;;;;5076416;28;20456;-77
2021/07/28 05:13:54;;;;;;;10.00;9.00;;;19.30;90.40;;;;;;5076178;28;20470;-77
2021/07/28 05:16:21;;;;;;;11.23;9.03;;;19.40;90.30;;;;;;5076213;28;20449;-77
2021/07/28 05:18:47;;;;;;;9.30;7.57;;;19.40;90.00;;;;;;5076146;28;20520;-77
2021/07/28 05:21:14;;;;;;;10.03;8.33;;;19.50;90.00;;;;;;5075956;28;20445;-77
2021/07/28 05:23:41;;;;;;;10.07;8.70;;;19.50;89.40;;;;;;5075979;28;20496;-77
2021/07/28 05:26:09;;;;;;;10.77;9.67;;;19.50;90.00;;;;;;5076195;28;20441;-77
2021/07/28 05:28:35;;;;;;;9.63;8.70;;;19.50;89.90;;;;;;5076013;28;20441;-77
2021/07/28 05:31:02;;;;;;;13.80;9.10;;;19.60;89.70;;;;;;5076475;28;20791;-77
2021/07/28 05:33:29;;;;;;;9.70;8.47;;;19.50;89.40;;;;;;5075986;28;20460;-77
2021/07/28 05:35:55;;;;;;;9.47;8.50;;;19.50;89.60;;;;;;5075604;28;20448;-77
2021/07/28 05:38:22;;;;;;;14.80;8.40;;;19.50;89.80;;;;;;5075813;28;20785;-77
2021/07/28 05:40:49;;;;;;;13.23;9.90;;;19.50;89.80;;;;;;5075933;28;20461;-77
2021/07/28 05:43:17;;;;;;;16.93;10.20;;;19.50;89.90;;;;;;5075604;28;20508;-77
2021/07/28 05:45:44;;;;;;;9.33;8.17;;;19.60;89.70;;;;;;5075719;28;20448;-77
2021/07/28 05:48:10;;;;;;;9.40;7.50;;;19.70;88.90;;;;;;5075650;28;20441;-77
2021/07/28 05:50:39;;;;;;;9.03;8.20;;;19.70;88.70;;;;;;5075774;28;20445;-77
2021/07/28 05:53:05;;;;;;;8.60;7.80;;;19.80;87.90;;;;;;5075475;28;20559;-77
2021/07/28 05:55:32;;;;;;;10.63;7.33;;;19.80;87.90;;;;;;5075595;28;20449;-77
2021/07/28 05:58:00;;;;;;;8.87;7.93;;;19.70;87.80;;;;;;5075508;28;20802;-77
2021/07/28 06:00:28;;;;;;;10.13;7.30;;;19.70;88.30;;;;;;5075595;28;20445;-77
2021/07/28 06:02:54;;;;;;;8.67;7.87;;;19.80;88.80;;;;;;5074828;28;20480;-77
2021/07/28 06:05:21;;;;;;;7.67;6.97;;;19.80;87.90;;;;;;5075371;28;20456;-77
2021/07/28 06:07:48;;;;;;;8.23;7.53;;;19.80;88.30;;;;;;5075620;28;20448;-77
2021/07/28 06:10:15;;;;;;;8.53;7.50;;;19.70;88.40;;;;;;5075545;28;20445;-77
2021/07/28 06:12:42;;;;;;;8.10;7.30;;;19.80;88.70;;;;;;5075246;28;20469;-77
2021/07/28 06:15:10;;;;;;;11.03;8.77;;;19.80;88.80;;;;;;5075027;28;20445;-76
2021/07/28 06:17:38;;;;;;;9.73;8.00;;;19.80;88.50;;;;;;5074953;28;20444;-75
2021/07/28 06:20:06;;;;;;;11.97;9.00;;;19.80;89.70;;;;;;5074512;28;20964;-75
2021/07/28 06:22:32;;;;;;;9.50;8.37;;;19.70;89.90;;;;;;5074449;28;20484;-74
2021/07/28 06:24:59;;;;;;;10.60;8.40;;;19.70;90.30;;;;;;5074718;28;20487;-75
2021/07/28 06:27:26;;;;;;;8.70;7.80;;;19.70;90.50;;;;;;5074716;28;20485;-75
2021/07/28 06:29:52;;;;;;;12.93;9.50;;;19.70;90.40;;;;;;5074631;28;20451;-75
2021/07/28 06:32:19;;;;;;;14.53;8.30;;;19.60;90.60;;;;;;5074542;28;20838;-75
2021/07/28 06:34:47;;;;;;;8.47;7.63;;;19.60;90.80;;;;;;5074516;28;20447;-75
2021/07/28 06:37:14;;;;;;;8.83;7.93;;;19.70;90.90;;;;;;5074363;28;20453;-76
2021/07/28 06:39:41;;;;;;;9.83;8.03;;;19.80;90.60;;;;;;5074438;28;20476;-76
2021/07/28 06:42:08;;;;;;;9.57;8.50;;;19.90;90.50;;;;;;5074248;28;20469;-76
2021/07/28 06:44:35;;;;;;;13.27;7.83;;;20.00;90.50;;;;;;5074282;28;20887;-75
2021/07/28 06:47:01;;;;;;;8.63;7.00;;;20.20;90.20;;;;;;5074278;28;20453;-76
2021/07/28 06:49:28;;;;;;;10.57;8.20;;;20.40;89.70;;;;;;5074339;28;20445;-76
2021/07/28 06:51:56;;;;;;;8.60;7.80;;;20.60;89.40;;;;;;5074259;28;20539;-77
2021/07/28 06:54:23;;;;;;;7.57;6.77;;;20.80;88.50;;;;;;5073738;28;20954;-77
2021/07/28 06:56:49;;;;;;;10.97;7.77;;;20.90;86.70;;;;;;5074034;28;20452;-77
2021/07/28 06:59:16;;;;;;;9.27;7.27;;;21.10;86.80;;;;;;5073963;28;20440;-75
2021/07/28 07:01:45;;;;;;;8.43;7.50;;;21.30;85.70;;;;;;5073832;28;20449;-77
2021/07/28 07:04:11;;;;;;;7.37;6.27;;;21.50;85.10;;;;;;5073734;28;20855;-77
2021/07/28 07:06:38;;;;;;;6.80;6.10;;;21.60;83.90;;;;;;5073801;28;20777;-77
2021/07/28 07:09:06;;;;;;;7.70;6.50;;;21.90;82.70;;;;;;5073801;28;20449;-76
2021/07/28 07:11:33;;;;;;;6.73;6.20;;;22.20;81.90;;;;;;5073501;28;20452;-74
2021/07/28 07:13:59;;;;;;;7.50;6.80;;;22.30;81.20;;;;;;5073084;28;20429;-71
2021/07/28 07:16:26;;;;;;;8.30;6.70;;;22.20;81.90;;;;;;5073847;28;20790;-73
2021/07/28 07:18:53;;;;;;;8.33;7.30;;;22.10;83.60;;;;;;5073506;28;20969;-73
2021/07/28 07:21:20;;;;;;;5.90;5.20;;;21.90;85.00;;;;;;5074419;28;20455;-75
2021/07/28 07:23:47;;;;;;;6.83;4.00;;;21.60;85.30;;;;;;5073327;28;20977;-72
2021/07/28 07:26:15;;;;;;;11.10;4.27;;;21.30;82.80;;;;;;5073688;28;20449;-74
2021/07/28 07:28:42;;;;;;;5.40;4.23;;;20.90;85.10;;;;;;5073367;28;20441;-74
2021/07/28 07:31:10;;;;;;;6.43;4.00;;;20.60;86.70;;;;;;5073635;28;20810;-74
2021/07/28 07:33:40;;;;;;;6.50;4.23;;;20.40;87.50;;;;;;5073556;28;20464;-74
2021/07/28 07:36:08;;;;;;;4.80;4.37;;;20.20;88.50;;;;;;5073593;28;20436;-74
2021/07/28 07:38:35;;;;;;;5.33;4.80;;;20.10;90.00;;;;;;5073414;28;20476;-74
2021/07/28 07:41:02;;;;;;;5.47;4.50;;;20.00;90.70;;;;;;5073703;28;20441;-74
2021/07/28 07:43:30;;;;;;;6.20;4.33;;;20.10;90.30;;;;;;5073435;28;20826;-74
2021/07/28 07:45:56;;;;;;;5.00;4.50;;;20.00;89.70;;;;;;5073998;28;20448;-74
2021/07/28 07:48:23;;;;;;;5.43;4.63;;;20.10;90.20;;;;;;5073456;28;20444;-74
2021/07/28 07:50:51;;;;;;;4.90;4.50;;;20.20;90.40;;;;;;5073409;28;20453;-74
2021/07/28 07:53:17;;;;;;;6.73;4.90;;;20.30;90.50;;;;;;5073051;28;21013;-74
2021/07/28 07:55:44;;;;;;;6.00;4.47;;;20.50;90.80;;;;;;5073059;28;20962;-74
2021/07/28 07:58:11;;;;;;;5.20;4.33;;;20.50;90.30;;;;;;5073257;28;20464;-75
2021/07/28 08:00:39;;;;;;;5.37;4.13;;;20.60;90.40;;;;;;5073364;28;20451;-75
2021/07/28 08:03:06;;;;;;;8.37;4.80;;;20.70;90.20;;;;;;5073211;28;20456;-75
2021/07/28 08:05:33;;;;;;;6.00;4.93;;;20.70;89.70;;;;;;5073258;28;20483;-75
2021/07/28 08:08:00;;;;;;;6.20;5.60;;;20.80;89.60;;;;;;5073247;28;20444;-75
2021/07/28 08:10:27;;;;;;;5.20;4.80;;;20.80;88.50;;;;;;5073254;28;20814;-76
2021/07/28 08:12:53;;;;;;;5.63;4.77;;;20.80;88.60;;;;;;5073183;28;20479;-76
2021/07/28 08:15:20;;;;;;;10.20;5.60;;;20.80;89.10;;;;;;5073196;28;20445;-76
2021/07/28 08:17:48;;;;;;;6.83;4.67;;;20.90;89.00;;;;;;5073199;28;20440;-76
2021/07/28 08:20:16;;;;;;;7.27;4.90;;;21.10;88.90;;;;;;5073118;28;20444;-76
2021/07/28 08:22:43;;;;;;;5.57;4.97;;;21.40;89.10;;;;;;5072628;28;20484;-76
2021/07/28 08:25:10;;;;;;;6.03;4.00;;;21.70;88.50;;;;;;5074423;28;21029;-76
2021/07/28 08:27:38;;;;;;;6.10;4.83;;;22.00;86.30;;;;;;5076997;28;20453;-76
2021/07/28 08:30:05;;;;;;;5.87;5.23;;;22.30;86.60;;;;;;5076941;28;20539;-76
2021/07/28 08:32:32;;;;;;;5.20;4.70;;;22.60;83.90;;;;;;5076793;28;20468;-76
2021/07/28 08:35:00;;;;;;;4.93;4.53;;;22.90;83.10;;;;;;5076882;28;20441;-76
2021/07/28 08:37:27;;;;;;;6.73;4.57;;;23.10;81.80;;;;;;5076454;28;20448;-77
2021/07/28 08:39:53;;;;;;;7.33;4.30;;;23.30;81.40;;;;;;5076783;28;20440;-77
2021/07/28 08:42:21;;;;;;;5.10;4.70;;;23.40;81.00;;;;;;5076751;28;20475;-76
2021/07/28 08:44:48;;;;;;;5.17;4.40;;;23.50;79.30;;;;;;5076602;28;20483;-76
2021/07/28 08:47:19;;;;;;;6.60;4.80;;;23.50;77.50;;;;;;5076787;28;20476;-76
2021/07/28 08:49:45;;;;;;;8.27;5.23;;;23.50;78.10;;;;;;5077064;28;20828;-76
2021/07/28 08:52:14;;;;;;;5.30;4.80;;;23.40;77.10;;;;;;5077271;28;20464;-76
2021/07/28 08:54:41;;;;;;;5.60;5.20;;;23.30;77.30;;;;;;5076779;28;20448;-76
2021/07/28 08:57:11;;;;;;;6.27;5.00;;;23.30;78.00;;;;;;5076384;28;20566;-76
2021/07/28 08:59:38;;;;;;;6.40;4.87;;;23.30;77.90;;;;;;5076398;28;20498;-76
2021/07/28 09:02:05;;;;;;;5.50;4.10;;;23.50;79.50;;;;;;5075941;28;20970;-76
2021/07/28 09:04:32;;;;;;;5.40;4.50;;;23.70;77.30;;;;;;5076200;28;20476;-77
2021/07/28 09:06:59;;;;;;;5.53;4.30;;;23.90;75.00;;;;;;5076222;28;20813;-76
2021/07/28 09:09:28;;;;;;;4.57;4.17;;;24.10;74.30;;;;;;5076146;28;20456;-76
2021/07/28 09:11:57;;;;;;;5.97;5.00;;;24.40;74.90;;;;;;5076136;28;20491;-75
2021/07/28 09:14:26;;;;;;;5.97;3.70;;;24.70;71.50;;;;;;5076105;28;20449;-76
2021/07/28 09:16:53;;;;;;;4.57;4.17;;;24.90;71.90;;;;;;5075870;28;20453;-76
2021/07/28 09:19:40;;;;;;;6.63;4.30;;;25.30;69.70;;;;;;5076097;28;20449;-77
2021/07/28 09:22:08;;;;;;;4.37;3.93;;;25.60;66.40;;;;;;5075717;28;20903;-76
2021/07/28 09:24:36;;;;;;;4.33;3.80;;;25.60;64.70;;;;;;5075873;28;20480;-77
2021/07/28 09:27:04;;;;;;;5.93;4.10;;;25.60;65.50;;;;;;5075652;28;20537;-76
2021/07/28 09:29:32;;;;;;;5.80;3.90;;;25.70;66.30;;;;;;5075825;28;20452;-77
2021/07/28 09:32:04;;;;;;;4.20;3.90;;;25.70;65.30;;;;;;5075752;28;20474;-76
2021/07/28 09:34:36;;;;;;;4.10;3.80;;;25.50;63.40;;;;;;5075839;28;20428;-76
2021/07/28 09:37:07;;;;;;;4.30;3.90;;;25.20;64.30;;;;;;5074804;28;20451;-76
2021/07/28 09:39:36;;;;;;;4.17;3.70;;;25.00;68.30;;;;;;5075747;28;20482;-76
2021/07/28 09:42:10;;;;;;;3.20;3.00;;;25.10;67.50;;;;;;5075628;28;20465;-76
2021/07/28 09:44:39;;;;;;;3.60;3.27;;;25.20;63.50;;;;;;5075566;28;20512;-76
2021/07/28 09:47:09;;;;;;;4.90;3.23;;;25.40;64.60;;;;;;5075865;28;20554;-77
2021/07/28 09:49:37;;;;;;;4.53;3.40;;;25.40;61.10;;;;;;5075914;28;20417;-76
2021/07/28 09:52:21;;;;;;;3.63;3.33;;;25.60;61.00;;;;;;5075461;28;20472;-76
2021/07/28 09:54:51;;;;;;;2.90;2.70;;;25.70;58.40;;;;;;5076126;28;20436;-77
2021/07/28 09:57:21;;;;;;;3.27;2.97;;;25.90;59.20;;;;;;5075120;28;21019;-76
2021/07/28 09:59:54;;;;;;;4.53;3.53;;;26.10;58.70;;;;;;5075734;28;20926;-75
2021/07/28 10:02:23;;;;;;;4.13;3.00;;;26.40;56.50;;;;;;5077989;28;20469;-75
2021/07/28 10:04:51;;;;;;;2.90;2.70;;;26.40;56.90;;;;;;5077143;28;20473;-75
2021/07/28 10:07:19;;;;;;;4.23;2.93;;;26.60;56.30;;;;;;5076644;28;20449;-76
2021/07/28 10:09:52;;;;;;;3.20;2.47;;;26.70;56.30;;;;;;5075996;28;20455;-76
2021/07/28 10:12:19;;;;;;;3.53;2.17;;;27.00;53.70;;;;;;5075931;28;20511;-75
2021/07/28 10:14:48;;;;;;;3.50;2.60;;;27.20;52.60;;;;;;5076654;28;20444;-77
2021/07/28 10:17:14;;;;;;;3.57;2.20;;;27.50;50.70;;;;;;5076089;28;20868;-76
2021/07/28 10:19:41;;;;;;;2.67;2.47;;;27.70;49.00;;;;;;5075482;28;20448;-75
2021/07/28 10:22:10;;;;;;;4.17;2.30;;;27.90;47.80;;;;;;5075285;28;20480;-76
2021/07/28 10:24:37;;;;;;;3.63;2.53;;;28.10;46.70;;;;;;5075464;28;20496;-77
2021/07/28 10:27:06;;;;;;;2.67;2.30;;;28.30;47.60;;;;;;5077637;28;20452;-76
2021/07/28 10:29:33;;;;;;;2.80;2.50;;;28.30;45.40;;;;;;5077461;28;20480;-77
2021/07/28 10:31:59;;;;;;;2.60;2.40;;;28.50;46.50;;;;;;5076513;28;20472;-76
2021/07/28 10:34:28;;;;;;;2.40;2.20;;;28.80;46.60;;;;;;5076513;28;20451;-77
2021/07/28 10:36:58;;;;;;;7.83;2.10;;;29.30;46.40;;;;;;5075886;28;20451;-76
2021/07/28 10:39:39;;;;;;;2.37;1.97;;;29.80;44.30;;;;;;5075898;28;20433;-76
2021/07/28 10:42:11;;;;;;;2.80;1.97;;;30.40;42.80;;;;;;5074971;28;20494;-77
2021/07/28 10:45:00;;;;;;;2.30;2.10;;;30.90;41.10;;;;;;5074774;28;20462;-77
2021/07/28 10:47:34;;;;;;;2.73;2.27;;;31.30;38.90;;;;;;5074435;28;20461;-77
2021/07/28 10:50:01;;;;;;;2.73;1.90;;;31.80;41.00;;;;;;5074652;28;20433;-77
2021/07/28 10:52:41;;;;;;;1.70;1.57;;;32.00;38.00;;;;;;5075088;28;20460;-77
2021/07/28 10:55:19;;;;;;;5.67;2.40;;;32.00;37.50;;;;;;5078257;28;20428;-75
2021/07/28 10:58:19;;;;;;;2.77;2.20;;;31.60;35.90;;;;;;5078787;28;20452;-76
2021/07/28 11:00:51;;;;;;;2.83;2.27;;;31.20;38.30;;;;;;5078217;28;20508;-76
2021/07/28 11:03:19;;;;;;;2.70;2.20;;;31.20;37.60;;;;;;5076251;28;20468;-75
2021/07/28 11:05:52;;;;;;;2.67;1.70;;;31.00;36.90;;;;;;5073872;28;20473;-77
2021/07/28 11:08:20;;;;;;;4.20;2.00;;;30.70;36.30;;;;;;5074145;28;20523;-77
2021/07/28 11:10:55;;;;;;;3.30;2.33;;;30.50;38.50;;;;;;5074132;28;20452;-75
2021/07/28 11:13:23;;;;;;;8.23;2.30;;;30.10;38.30;;;;;;5074225;28;20464;-76
2021/07/28 11:15:57;;;;;;;4.33;2.50;;;29.70;38.60;;;;;;5074209;28;20441;-77
2021/07/28 11:18:37;;;;;;;4.37;2.27;;;29.40;40.10;;;;;;5074240;28;20468;-77
2021/07/28 11:21:11;;;;;;;2.33;1.90;;;29.00;39.10;;;;;;5073716;28;20927;-77
2021/07/28 11:23:41;;;;;;;3.67;2.43;;;28.70;40.40;;;;;;5074128;28;20467;-77
2021/07/28 11:26:14;;;;;;;2.97;2.10;;;28.30;41.00;;;;;;5074081;28;20480;-77
2021/07/28 11:28:41;;;;;;;2.50;2.00;;;28.00;42.70;;;;;;5073973;28;20506;-77
2021/07/28 11:31:09;;;;;;;2.80;2.07;;;28.00;44.70;;;;;;5073890;28;20498;-77
2021/07/28 11:33:36;;;;;;;2.90;2.17;;;28.50;43.20;;;;;;5074234;28;20478;-77
2021/07/28 11:36:04;;;;;;;2.90;2.10;;;28.50;42.70;;;;;;5074249;28;20770;-77
2021/07/28 11:38:34;;;;;;;2.13;2.03;;;28.30;42.90;;;;;;5073697;28;20448;-77
2021/07/28 11:41:02;;;;;;;3.77;1.60;;;28.10;44.50;;;;;;5073725;28;20448;-77
2021/07/28 11:43:31;;;;;;;3.10;1.90;;;27.90;43.70;;;;;;5073542;28;20480;-76
2021/07/28 11:45:59;;;;;;;2.20;2.00;;;27.90;45.10;;;;;;5073494;28;20480;-76
2021/07/28 11:48:31;;;;;;;3.90;1.87;;;28.40;42.40;;;;;;5073598;28;20451;-76
2021/07/28 11:50:58;;;;;;;4.80;2.07;;;28.50;40.90;;;;;;5073473;28;20456;-76
2021/07/28 11:53:25;;;;;;;3.00;1.80;;;28.40;43.60;;;;;;5073161;28;21004;-76
2021/07/28 11:55:53;;;;;;;5.40;2.33;;;28.20;42.90;;;;;;5073152;28;20440;-76
2021/07/28 11:58:20;;;;;;;7.00;1.93;;;28.20;42.80;;;;;;5073453;28;20855;-76
2021/07/28 12:00:48;;;;;;;2.53;2.33;;;28.20;42.60;;;;;;5076460;28;20467;-76
2021/07/28 12:03:25;;;;;;;4.80;1.77;;;28.20;44.20;;;;;;5077505;28;20555;-77
2021/07/28 12:06:03;;;;;;;2.50;1.40;;;28.00;43.70;;;;;;5077159;28;20904;-77
2021/07/28 12:08:34;;;;;;;6.53;1.90;;;27.70;44.00;;;;;;5077349;28;20448;-76
2021/07/28 12:11:08;;;;;;;3.83;1.50;;;27.60;41.20;;;;;;5077035;28;20444;-77
2021/07/28 12:13:43;;;;;;;3.10;1.93;;;27.80;42.30;;;;;;5076990;28;20834;-76
2021/07/28 12:16:09;;;;;;;3.47;1.80;;;28.70;42.80;;;;;;5077254;28;20448;-76
2021/07/28 12:18:41;;;;;;;4.03;1.90;;;29.90;40.80;;;;;;5077200;28;20472;-76
2021/07/28 12:21:09;;;;;;;6.17;2.07;;;30.10;36.90;;;;;;5077156;28;20482;-76
2021/07/28 12:23:36;;;;;;;3.10;1.87;;;29.90;39.80;;;;;;5077027;28;20464;-75
2021/07/28 12:26:03;;;;;;;3.20;1.80;;;29.80;38.00;;;;;;5077084;28;20472;-77
2021/07/28 12:28:49;;;;;;;3.83;1.63;;;30.40;39.20;;;;;;5077033;28;20471;-75
2021/07/28 12:31:26;;;;;;;2.83;1.77;;;31.30;36.30;;;;;;5076621;28;20976;-75
2021/07/28 12:33:54;;;;;;;2.00;1.80;;;31.50;34.80;;;;;;5076505;28;21006;-76
2021/07/28 12:36:28;;;;;;;4.10;1.97;;;31.60;34.20;;;;;;5076877;28;20810;-75
2021/07/28 12:38:55;;;;;;;1.80;1.70;;;31.30;32.20;;;;;;5076757;28;20476;-76
2021/07/28 12:41:23;;;;;;;4.83;1.30;;;31.30;34.70;;;;;;5076974;28;20448;-75
2021/07/28 12:43:51;;;;;;;5.37;1.60;;;31.60;32.80;;;;;;5076720;28;20475;-76
2021/07/28 12:46:17;;;;;;;3.20;1.60;;;32.20;33.30;;;;;;5076372;28;20574;-77
2021/07/28 12:48:45;;;;;;;2.93;1.50;;;32.90;30.10;;;;;;5077142;28;20444;-76
2021/07/28 12:51:13;;;;;;;3.63;1.83;;;32.90;29.60;;;;;;5076998;28;20452;-77